Time;durP1;ratioP1;P1;durP2;ratioP2;P2;SDS_P1;SDS_P2;PMS_P1;PMS_P2;Temp;Humidity;BMP_temperature;BMP_pressure;BME280_temperature;BME280_humidity;BME280_pressure;Samples;Min_cycle;Max_cycle;Signal;HPM_P1;HPM_P2
2022/01/23 00:00:41;;;;;;;62.70;26.88;;;0.80;90.20;;;;;;5049494;28;20021;-68
2022/01/23 00:03:15;;;;;;;54.33;24.75;;;0.80;91.00;;;;;;5038943;28;20021;-67
2022/01/23 00:05:44;;;;;;;54.33;24.25;;;0.80;91.50;;;;;;5047905;28;20030;-69
2022/01/23 00:08:12;;;;;;;49.35;23.58;;;0.80;91.40;;;;;;5039004;28;20385;-69
2022/01/23 00:10:38;;;;;;;43.63;21.92;;;0.70;91.00;;;;;;5045543;28;20025;-68
2022/01/23 00:13:16;;;;;;;53.95;27.38;;;0.80;91.40;;;;;;5046159;28;20373;-68
2022/01/23 00:18:29;;;;;;;49.50;24.10;;;0.80;90.70;;;;;;5051022;28;20027;-69
2022/01/23 00:20:55;;;;;;;42.17;20.77;;;0.90;91.50;;;;;;5058435;28;20323;-69
2022/01/23 00:31:22;;;;;;;;;;;0.90;92.40;;;;;;5047584;28;20476;-69
2022/01/23 00:33:48;;;;;;;31.58;17.25;;;0.90;92.50;;;;;;5050500;28;19909;-68
2022/01/23 00:36:14;;;;;;;39.17;18.88;;;0.80;92.60;;;;;;5055800;28;20033;-68
2022/01/23 00:38:41;;;;;;;40.42;19.33;;;0.90;92.60;;;;;;5051880;28;20028;-69
2022/01/23 00:41:06;;;;;;;32.38;15.77;;;0.80;93.00;;;;;;5054972;28;20079;-69
2022/01/23 00:43:35;;;;;;;34.92;18.40;;;0.80;93.20;;;;;;5037429;28;20029;-69
2022/01/23 00:51:27;;;;;;;35.63;19.17;;;0.80;93.20;;;;;;5039476;28;20099;-69
2022/01/23 00:53:54;;;;;;;35.35;17.85;;;0.90;92.30;;;;;;5037131;28;20402;-69
2022/01/23 00:56:19;;;;;;;32.72;15.70;;;1.00;92.70;;;;;;5045390;28;20033;-69
2022/01/23 00:58:45;;;;;;;27.55;13.93;;;1.00;93.70;;;;;;5053036;28;20024;-69
2022/01/23 01:01:15;;;;;;;24.38;13.45;;;0.90;94.60;;;;;;5047991;28;20025;-68
2022/01/23 01:03:43;;;;;;;20.98;11.13;;;0.90;94.00;;;;;;5049280;28;20029;-68
2022/01/23 01:06:09;;;;;;;22.00;12.07;;;0.90;94.40;;;;;;5048420;28;20053;-69
2022/01/23 01:08:35;;;;;;;23.13;10.85;;;1.00;94.20;;;;;;5047707;28;20063;-68
2022/01/23 01:14:09;;;;;;;20.40;11.57;;;1.00;95.70;;;;;;5049602;28;20044;-69
2022/01/23 01:35:43;;;;;;;28.95;16.25;;;0.90;95.70;;;;;;5054766;28;20075;-69
2022/01/23 01:38:09;;;;;;;30.17;16.08;;;0.80;95.40;;;;;;5054267;28;20028;-68
2022/01/23 01:40:36;;;;;;;28.95;16.02;;;0.80;95.30;;;;;;5053952;28;20053;-69
2022/01/23 01:43:02;;;;;;;27.42;15.02;;;0.90;94.80;;;;;;5059553;28;20092;-69
2022/01/23 01:45:30;;;;;;;27.30;15.13;;;0.90;94.60;;;;;;5036239;28;20120;-68
2022/01/23 01:48:00;;;;;;;26.38;14.75;;;1.00;94.80;;;;;;5038090;28;20030;-69
2022/01/23 01:50:31;;;;;;;34.30;17.08;;;0.90;95.20;;;;;;5044156;28;20327;-69
2022/01/23 01:52:57;;;;;;;23.40;13.25;;;0.90;95.10;;;;;;5038998;28;20032;-69
2022/01/23 01:55:27;;;;;;;28.75;14.07;;;1.00;94.60;;;;;;5056593;28;20033;-69
2022/01/23 01:58:00;;;;;;;22.48;11.63;;;1.00;95.00;;;;;;5057940;28;20182;-69
2022/01/23 02:08:29;;;;;;;30.92;15.88;;;0.90;95.90;;;;;;5038766;28;20366;-67
2022/01/23 02:11:05;;;;;;;28.17;15.45;;;0.90;95.70;;;;;;5057943;28;20032;-67
2022/01/23 02:13:36;;;;;;;30.88;15.55;;;0.90;95.40;;;;;;5038186;28;20034;-69
2022/01/23 02:24:07;;;;;;;21.70;11.63;;;1.10;94.80;;;;;;5056412;28;20048;-68
2022/01/23 02:56:48;;;;;;;28.00;14.63;;;0.90;94.30;;;;;;5047888;28;20025;-68
2022/01/23 02:59:30;;;;;;;29.75;14.52;;;0.90;95.00;;;;;;5038242;28;20292;-68
2022/01/23 03:02:25;;;;;;;26.52;13.30;;;0.90;95.00;;;;;;5047265;28;20093;-68
2022/01/23 03:04:53;;;;;;;20.67;11.55;;;0.90;94.90;;;;;;5055521;28;20036;-68
2022/01/23 03:07:54;;;;;;;20.95;11.65;;;1.00;94.70;;;;;;5040034;28;20044;-68
2022/01/23 03:10:24;;;;;;;22.50;12.60;;;1.10;94.80;;;;;;5038261;28;20029;-68
2022/01/23 03:29:17;;;;;;;20.60;10.35;;;1.10;95.40;;;;;;5039142;28;20339;-67
2022/01/23 03:31:44;;;;;;;24.38;11.65;;;1.10;95.80;;;;;;5042115;28;20049;-68
2022/01/23 03:34:11;;;;;;;20.27;11.25;;;1.00;96.40;;;;;;5044609;28;20027;-68
2022/01/23 03:36:38;;;;;;;25.15;13.07;;;1.00;96.10;;;;;;5048228;28;20037;-68
2022/01/23 03:39:11;;;;;;;24.48;12.98;;;0.90;95.90;;;;;;5051360;28;20096;-68
2022/01/23 03:41:39;;;;;;;25.40;13.40;;;0.90;95.60;;;;;;5044992;28;20037;-68
2022/01/23 03:44:08;;;;;;;24.73;12.43;;;0.90;95.20;;;;;;5047723;28;20100;-68
2022/01/23 03:49:35;;;;;;;24.33;12.23;;;0.80;95.30;;;;;;5035673;28;20386;-68
2022/01/23 03:52:03;;;;;;;22.15;12.32;;;0.80;94.80;;;;;;5038085;28;20036;-68
2022/01/23 03:54:30;;;;;;;26.70;13.55;;;0.80;94.40;;;;;;5037040;28;20028;-68
2022/01/23 03:56:57;;;;;;;26.40;13.23;;;0.80;94.40;;;;;;5054599;28;20074;-68
2022/01/23 03:59:23;;;;;;;25.67;12.73;;;0.80;94.30;;;;;;5052576;28;20025;-68
2022/01/23 04:01:48;;;;;;;22.02;11.20;;;0.80;94.10;;;;;;5045503;28;20078;-69
2022/01/23 04:07:02;;;;;;;18.50;9.95;;;0.90;94.30;;;;;;5037297;28;20024;-67
2022/01/23 04:09:28;;;;;;;23.08;11.93;;;1.00;94.00;;;;;;5058655;28;20382;-66
2022/01/23 04:11:54;;;;;;;21.52;10.85;;;0.90;93.90;;;;;;5043020;28;20100;-67
2022/01/23 04:14:23;;;;;;;19.85;11.43;;;0.90;94.20;;;;;;5047352;28;20109;-68
2022/01/23 05:00:47;;;;;;;18.02;10.38;;;1.20;94.40;;;;;;5041786;28;20035;-68
2022/01/23 05:05:58;;;;;;;28.20;16.88;;;1.10;95.70;;;;;;5040120;28;20091;-68
2022/01/23 05:08:23;;;;;;;18.80;11.27;;;1.00;95.40;;;;;;5039883;28;20037;-67
2022/01/23 05:10:49;;;;;;;20.17;11.00;;;1.00;95.50;;;;;;5036744;28;20026;-68
2022/01/23 05:13:15;;;;;;;18.42;9.88;;;1.00;95.30;;;;;;5041650;28;20021;-68
2022/01/23 05:15:40;;;;;;;18.10;9.52;;;0.90;95.30;;;;;;5047994;28;20047;-67
2022/01/23 05:18:06;;;;;;;18.83;11.02;;;0.90;95.40;;;;;;5061349;28;20025;-68
2022/01/23 05:20:32;;;;;;;18.63;10.40;;;1.00;94.90;;;;;;5053206;28;20085;-67
2022/01/23 05:23:03;;;;;;;18.02;9.75;;;1.00;95.00;;;;;;5043442;28;20457;-67
2022/01/23 05:25:34;;;;;;;15.85;8.90;;;1.00;95.10;;;;;;5042775;28;20045;-67
2022/01/23 05:28:00;;;;;;;15.98;9.02;;;1.00;95.00;;;;;;5047381;28;20022;-68
2022/01/23 05:30:29;;;;;;;15.48;8.65;;;1.00;95.00;;;;;;5052711;28;20098;-68
2022/01/23 05:32:57;;;;;;;27.15;15.30;;;1.00;95.10;;;;;;5051790;28;20086;-68
2022/01/23 05:35:24;;;;;;;18.40;10.10;;;1.00;95.20;;;;;;5050587;28;20046;-67
2022/01/23 05:37:50;;;;;;;20.63;10.35;;;1.00;95.00;;;;;;5053060;28;20311;-67
2022/01/23 05:40:18;;;;;;;17.70;9.50;;;0.90;95.00;;;;;;5055336;28;20040;-67
2022/01/23 05:42:47;;;;;;;17.98;9.77;;;0.90;95.20;;;;;;5050467;28;20032;-69
2022/01/23 05:45:12;;;;;;;20.02;10.10;;;0.90;95.00;;;;;;5055880;28;20481;-69
2022/01/23 05:47:38;;;;;;;16.52;9.48;;;0.80;94.80;;;;;;5047275;28;20108;-70
2022/01/23 05:50:05;;;;;;;17.38;9.70;;;0.80;94.50;;;;;;5044088;28;20434;-69
2022/01/23 05:52:31;;;;;;;15.90;8.27;;;0.70;94.40;;;;;;5043836;28;20040;-69
2022/01/23 05:54:58;;;;;;;14.43;8.32;;;0.70;94.20;;;;;;5041883;28;20185;-69
2022/01/23 05:57:24;;;;;;;18.65;9.07;;;0.80;93.30;;;;;;5051951;28;20090;-70
2022/01/23 05:59:50;;;;;;;17.65;8.77;;;0.80;94.20;;;;;;5056016;28;20029;-69
2022/01/23 06:02:18;;;;;;;16.42;9.40;;;0.80;94.30;;;;;;5051036;28;20044;-69
2022/01/23 06:04:44;;;;;;;24.30;11.30;;;0.80;94.20;;;;;;5040640;28;20027;-69
2022/01/23 06:07:10;;;;;;;18.83;9.50;;;0.70;93.80;;;;;;5047551;28;20100;-69
2022/01/23 06:09:37;;;;;;;17.58;9.15;;;0.70;93.60;;;;;;5053973;28;20032;-69
2022/01/23 06:12:04;;;;;;;15.75;8.45;;;0.70;93.30;;;;;;5049033;28;20410;-69
2022/01/23 06:14:30;;;;;;;15.98;9.00;;;0.70;93.10;;;;;;5053789;28;20326;-69
2022/01/23 06:16:55;;;;;;;21.67;9.57;;;0.70;92.60;;;;;;5038711;28;20022;-69
2022/01/23 06:19:21;;;;;;;18.00;9.20;;;0.80;92.90;;;;;;5038628;28;20033;-68
2022/01/23 06:21:47;;;;;;;13.93;7.85;;;0.80;93.10;;;;;;5048226;28;20033;-69
2022/01/23 06:24:25;;;;;;;16.95;9.13;;;0.70;93.20;;;;;;5046928;28;20330;-69
2022/01/23 06:26:53;;;;;;;21.10;10.15;;;0.70;92.90;;;;;;5038302;28;20319;-69
2022/01/23 06:29:20;;;;;;;16.38;8.85;;;0.70;92.50;;;;;;5042661;28;20021;-69
2022/01/23 06:31:47;;;;;;;16.65;9.18;;;0.70;92.60;;;;;;5041192;28;20028;-69
2022/01/23 06:34:14;;;;;;;15.85;8.65;;;0.70;92.70;;;;;;5050719;28;20025;-69
2022/01/23 06:36:40;;;;;;;36.13;17.23;;;0.70;92.50;;;;;;5046547;28;20028;-68
2022/01/23 06:39:08;;;;;;;45.28;23.27;;;0.80;92.10;;;;;;5048693;28;20460;-69
2022/01/23 06:41:34;;;;;;;60.28;31.70;;;0.70;92.50;;;;;;5048022;28;20025;-69
2022/01/23 06:43:59;;;;;;;45.85;22.58;;;0.70;92.20;;;;;;5044357;28;20104;-69
2022/01/23 06:46:25;;;;;;;24.77;12.80;;;0.70;92.00;;;;;;5042318;28;20410;-68
2022/01/23 06:48:51;;;;;;;22.60;13.00;;;0.80;91.90;;;;;;5051004;28;20398;-68
2022/01/23 06:51:17;;;;;;;20.98;12.20;;;0.80;91.80;;;;;;5048768;28;20040;-69
2022/01/23 06:53:43;;;;;;;21.48;11.75;;;0.80;90.90;;;;;;5040580;28;20025;-69
2022/01/23 06:56:09;;;;;;;16.33;8.82;;;0.80;92.00;;;;;;5043780;28;20029;-69
2022/01/23 06:58:34;;;;;;;18.98;10.48;;;0.90;91.80;;;;;;5045622;28;20047;-69
2022/01/23 07:01:00;;;;;;;14.43;8.20;;;0.80;92.20;;;;;;5041973;28;20028;-69
2022/01/23 07:03:25;;;;;;;13.65;8.18;;;0.90;91.20;;;;;;5037542;28;20040;-69
2022/01/23 07:05:51;;;;;;;15.57;9.05;;;0.90;92.50;;;;;;5052522;28;20029;-68
2022/01/23 07:08:18;;;;;;;16.15;9.77;;;0.80;92.50;;;;;;5043410;28;20032;-69
2022/01/23 07:10:43;;;;;;;16.63;9.10;;;0.80;92.30;;;;;;5038757;28;20029;-70
2022/01/23 07:13:09;;;;;;;15.43;8.27;;;0.90;92.50;;;;;;5051313;28;20033;-70
2022/01/23 07:15:35;;;;;;;20.90;11.45;;;0.90;92.40;;;;;;5047072;28;20083;-69
2022/01/23 07:18:00;;;;;;;14.85;8.95;;;0.90;91.90;;;;;;5046301;28;20081;-69
2022/01/23 07:20:26;;;;;;;15.52;8.90;;;0.90;92.30;;;;;;5046722;28;20342;-69
2022/01/23 07:22:52;;;;;;;17.75;9.93;;;1.00;92.50;;;;;;5044653;28;20029;-68
2022/01/23 07:25:17;;;;;;;15.77;8.93;;;1.00;93.00;;;;;;5040730;28;20430;-69
2022/01/23 07:27:49;;;;;;;16.70;9.68;;;1.00;92.90;;;;;;5044239;28;20021;-69
2022/01/23 07:30:35;;;;;;;19.48;11.57;;;1.00;92.60;;;;;;5044098;28;20116;-69
2022/01/23 07:33:01;;;;;;;18.85;10.88;;;1.10;92.50;;;;;;5037319;28;20025;-70
2022/01/23 07:35:26;;;;;;;21.23;12.25;;;1.10;92.30;;;;;;5051140;28;20321;-69
2022/01/23 07:37:52;;;;;;;20.08;11.15;;;1.10;93.30;;;;;;5047105;28;20032;-69
2022/01/23 07:40:19;;;;;;;19.65;11.30;;;1.10;93.00;;;;;;5041162;28;20033;-69
2022/01/23 07:42:45;;;;;;;23.90;12.60;;;1.10;93.10;;;;;;5048468;28;20013;-68
2022/01/23 07:45:10;;;;;;;19.30;11.40;;;1.20;92.80;;;;;;5044886;28;20028;-69
2022/01/23 07:47:37;;;;;;;20.35;10.77;;;1.20;92.70;;;;;;5041277;28;20064;-69
2022/01/23 07:50:06;;;;;;;23.55;13.73;;;1.20;92.70;;;;;;5049974;28;20063;-69
2022/01/23 07:52:35;;;;;;;47.15;24.60;;;1.30;92.80;;;;;;5042740;28;20034;-69
2022/01/23 07:55:06;;;;;;;35.08;20.83;;;1.30;93.50;;;;;;5043752;28;20029;-69
2022/01/23 07:57:33;;;;;;;28.42;16.65;;;1.20;93.60;;;;;;5045038;28;20029;-69
2022/01/23 08:00:00;;;;;;;22.77;12.68;;;1.20;93.20;;;;;;5039798;28;20033;-69
2022/01/23 08:02:26;;;;;;;18.55;10.27;;;1.20;92.90;;;;;;5051420;28;20100;-69
2022/01/23 08:04:52;;;;;;;21.23;10.90;;;1.20;92.80;;;;;;5052969;28;20428;-69
2022/01/23 08:09:59;;;;;;;25.58;15.02;;;1.20;93.50;;;;;;5044038;28;20480;-69
2022/01/23 08:12:26;;;;;;;22.67;13.70;;;1.20;93.40;;;;;;5053926;28;20048;-69
2022/01/23 08:14:53;;;;;;;22.83;13.35;;;1.20;93.30;;;;;;5056319;28;20021;-68
2022/01/23 08:17:24;;;;;;;22.40;13.27;;;1.30;92.60;;;;;;5051049;28;20037;-68
2022/01/23 08:19:53;;;;;;;27.83;16.40;;;1.30;93.40;;;;;;5046148;28;20105;-69
2022/01/23 08:22:21;;;;;;;30.17;17.75;;;1.40;93.10;;;;;;5042878;28;20037;-69
2022/01/23 08:24:47;;;;;;;28.60;17.50;;;1.50;94.50;;;;;;5045278;28;20384;-68
2022/01/23 08:27:13;;;;;;;38.00;22.38;;;1.50;94.60;;;;;;5045853;28;20436;-68
2022/01/23 08:29:39;;;;;;;32.33;19.75;;;1.50;94.90;;;;;;5044632;28;20109;-67
2022/01/23 08:32:05;;;;;;;31.50;19.60;;;1.40;95.10;;;;;;5038428;28;20017;-68
2022/01/23 08:34:30;;;;;;;28.98;18.60;;;1.40;95.10;;;;;;5041893;28;20068;-68
2022/01/23 08:36:56;;;;;;;30.95;19.90;;;1.40;95.40;;;;;;5037457;28;20456;-69
2022/01/23 08:39:26;;;;;;;33.47;21.75;;;1.40;95.20;;;;;;5038836;28;20144;-69
2022/01/23 08:41:52;;;;;;;36.65;23.10;;;1.50;95.50;;;;;;5039371;28;20022;-70
2022/01/23 08:44:20;;;;;;;30.10;19.65;;;1.40;95.50;;;;;;5037222;28;20025;-69
2022/01/23 08:46:46;;;;;;;35.38;21.92;;;1.50;95.50;;;;;;5038550;28;21959;-69
2022/01/23 08:49:12;;;;;;;26.83;17.42;;;1.60;95.60;;;;;;5037361;28;20389;-69
2022/01/23 08:51:38;;;;;;;36.63;23.63;;;1.60;95.50;;;;;;5039891;28;20037;-69
2022/01/23 08:54:07;;;;;;;50.45;30.85;;;1.60;96.00;;;;;;5040476;28;20330;-69
2022/01/23 08:56:33;;;;;;;51.17;30.00;;;1.60;95.80;;;;;;5036650;28;20029;-69
2022/01/23 08:58:58;;;;;;;53.20;30.58;;;1.60;95.80;;;;;;5038410;28;20052;-69
2022/01/23 09:01:28;;;;;;;39.00;22.20;;;1.70;96.00;;;;;;5039865;28;20057;-69
2022/01/23 09:03:53;;;;;;;32.60;20.15;;;1.70;95.90;;;;;;5045687;28;20296;-69
2022/01/23 09:06:20;;;;;;;32.17;19.60;;;1.80;96.00;;;;;;5034571;28;20044;-68
2022/01/23 09:08:46;;;;;;;33.22;21.13;;;1.80;96.70;;;;;;5042958;28;20415;-68
2022/01/23 09:11:38;;;;;;;30.55;19.63;;;1.80;96.70;;;;;;5041604;28;20029;-68
2022/01/23 09:16:31;;;;;;;30.40;19.17;;;2.00;96.60;;;;;;5046248;28;20322;-68
2022/01/23 09:18:58;;;;;;;31.10;19.67;;;2.00;97.40;;;;;;5038677;28;20030;-69
2022/01/23 09:21:26;;;;;;;27.65;17.85;;;2.10;97.40;;;;;;5043766;28;20163;-67
2022/01/23 09:23:52;;;;;;;27.90;18.10;;;2.20;97.30;;;;;;5041484;28;20056;-67
2022/01/23 09:26:21;;;;;;;30.25;18.77;;;2.30;98.00;;;;;;5035418;28;20022;-68
2022/01/23 09:28:47;;;;;;;31.77;18.73;;;2.30;98.00;;;;;;5047149;28;20017;-68
2022/01/23 09:31:24;;;;;;;26.58;16.17;;;2.30;98.00;;;;;;5045456;28;20029;-69
2022/01/23 09:33:49;;;;;;;28.00;17.58;;;2.40;98.00;;;;;;5044691;28;20037;-68
2022/01/23 09:36:15;;;;;;;34.90;20.77;;;2.50;98.00;;;;;;5039700;28;20026;-68
2022/01/23 09:38:41;;;;;;;29.55;19.13;;;2.60;98.00;;;;;;5038710;28;20030;-68
2022/01/23 09:41:09;;;;;;;33.25;19.75;;;2.60;98.00;;;;;;5042842;28;20046;-68
2022/01/23 09:43:39;;;;;;;28.33;17.13;;;2.60;98.00;;;;;;5047495;28;20426;-68
2022/01/23 09:46:07;;;;;;;21.52;13.85;;;2.50;98.00;;;;;;5043671;28;20556;-68
2022/01/23 09:48:34;;;;;;;53.75;34.40;;;2.60;98.00;;;;;;5039209;28;20048;-69
2022/01/23 09:51:01;;;;;;;40.72;25.80;;;2.60;98.00;;;;;;5042079;28;20322;-69
2022/01/23 09:53:28;;;;;;;30.48;19.63;;;2.60;98.00;;;;;;5042372;28;20034;-68
2022/01/23 09:55:59;;;;;;;35.45;22.30;;;2.80;98.00;;;;;;5044580;28;20025;-68
2022/01/23 09:58:25;;;;;;;40.45;23.75;;;2.80;98.00;;;;;;5042118;28;20318;-69
2022/01/23 10:00:51;;;;;;;32.70;19.80;;;2.90;98.00;;;;;;5045011;28;20411;-68
2022/01/23 10:03:19;;;;;;;28.10;17.60;;;2.90;98.00;;;;;;5039483;28;20033;-67
2022/01/23 10:05:49;;;;;;;25.50;16.92;;;3.00;98.00;;;;;;5037784;28;20041;-69
2022/01/23 10:08:16;;;;;;;19.75;13.63;;;3.10;98.00;;;;;;5043153;28;20444;-68
2022/01/23 10:10:42;;;;;;;24.60;15.13;;;3.20;98.00;;;;;;5044343;28;20120;-68
2022/01/23 10:13:10;;;;;;;21.35;14.05;;;3.40;98.00;;;;;;5041703;28;20116;-68
2022/01/23 10:15:36;;;;;;;23.25;15.45;;;3.60;98.00;;;;;;5044698;28;20295;-68
2022/01/23 10:18:05;;;;;;;34.65;21.00;;;3.80;98.00;;;;;;5038455;28;20029;-68
2022/01/23 10:20:30;;;;;;;34.70;21.10;;;3.80;98.00;;;;;;5042593;28;20362;-68
2022/01/23 10:22:58;;;;;;;25.67;14.98;;;3.90;98.00;;;;;;5041426;28;20079;-68
2022/01/23 10:25:33;;;;;;;23.88;14.95;;;4.10;98.00;;;;;;5039018;28;20045;-68
2022/01/23 10:28:17;;;;;;;29.23;16.38;;;4.30;98.00;;;;;;5038362;28;20026;-68
2022/01/23 10:30:49;;;;;;;16.17;10.55;;;4.40;98.00;;;;;;5039497;28;20414;-68
2022/01/23 10:33:21;;;;;;;15.15;9.18;;;4.60;98.00;;;;;;5047123;28;20087;-69
2022/01/23 10:35:59;;;;;;;8.63;5.20;;;4.60;98.00;;;;;;5042017;28;20299;-68
2022/01/23 10:39:00;;;;;;;8.52;4.97;;;4.50;98.00;;;;;;5039955;28;20025;-67
2022/01/23 10:50:21;;;;;;;7.55;4.57;;;4.40;96.70;;;;;;5043278;28;20469;-69
2022/01/23 10:52:48;;;;;;;6.55;3.95;;;4.40;94.90;;;;;;5037152;28;20032;-69
2022/01/23 10:55:19;;;;;;;5.70;3.13;;;4.40;95.00;;;;;;5036810;28;20056;-68
2022/01/23 10:57:51;;;;;;;6.38;3.80;;;4.40;95.20;;;;;;5038956;28;20116;-69
2022/01/23 11:00:39;;;;;;;5.65;3.30;;;4.40;94.90;;;;;;5057702;28;20039;-67
2022/01/23 11:03:21;;;;;;;5.32;3.28;;;4.20;93.20;;;;;;5037748;28;20108;-68
2022/01/23 11:05:48;;;;;;;7.05;4.25;;;4.00;92.90;;;;;;5036653;28;20035;-69
2022/01/23 11:08:25;;;;;;;7.45;4.97;;;3.80;93.50;;;;;;5038086;28;20318;-68
2022/01/23 11:11:03;;;;;;;6.90;3.60;;;3.90;94.40;;;;;;5042972;28;20028;-69
2022/01/23 11:19:26;;;;;;;7.00;3.63;;;4.10;92.30;;;;;;5052787;28;20052;-69
2022/01/23 11:21:53;;;;;;;5.07;2.70;;;4.00;92.90;;;;;;5047989;28;20037;-68
2022/01/23 11:24:20;;;;;;;5.40;2.70;;;4.00;92.60;;;;;;5068918;28;20037;-67
2022/01/23 11:26:46;;;;;;;4.70;3.00;;;4.10;92.70;;;;;;5069810;28;20036;-67
2022/01/23 11:29:19;;;;;;;5.78;2.50;;;4.00;90.80;;;;;;5060066;28;20318;-68
2022/01/23 11:31:45;;;;;;;5.40;2.95;;;3.80;91.20;;;;;;5042008;28;20426;-70
2022/01/23 11:34:14;;;;;;;5.93;3.53;;;3.80;91.60;;;;;;5040119;28;20048;-68
2022/01/23 11:36:40;;;;;;;6.55;4.70;;;3.80;92.60;;;;;;5048877;28;20115;-69
2022/01/23 11:39:20;;;;;;;7.22;4.82;;;3.90;92.30;;;;;;5037022;28;20025;-69
2022/01/23 11:54:07;;;;;;;6.35;3.10;;;4.20;92.00;;;;;;5051510;28;20033;-69
2022/01/23 11:56:29;;;;;;;8.27;4.00;;;4.20;91.90;;;;;;5049838;28;20140;-68
2022/01/23 11:59:25;;;;;;;6.55;3.83;;;4.20;92.00;;;;;;5042128;28;20025;-67
2022/01/23 12:04:36;;;;;;;15.65;7.10;;;4.20;92.50;;;;;;5047349;28;20116;-68
2022/01/23 12:07:12;;;;;;;10.23;5.95;;;4.20;92.40;;;;;;5060353;28;20071;-68
2022/01/23 12:09:43;;;;;;;6.53;3.80;;;4.10;92.70;;;;;;5065020;28;20097;-69
2022/01/23 12:17:20;;;;;;;6.57;4.25;;;3.90;93.10;;;;;;5037259;28;20030;-69
2022/01/23 12:19:48;;;;;;;8.27;4.75;;;3.90;93.40;;;;;;5049147;28;20028;-69
2022/01/23 12:22:40;;;;;;;7.68;4.45;;;3.90;93.90;;;;;;5043497;28;20017;-68
2022/01/23 12:25:25;;;;;;;8.20;4.30;;;4.00;94.50;;;;;;5053412;28;20041;-68
2022/01/23 12:28:10;;;;;;;9.30;4.93;;;4.10;94.60;;;;;;5042265;28;20423;-68
2022/01/23 12:30:37;;;;;;;7.85;4.47;;;4.10;92.20;;;;;;5037348;28;20496;-68
2022/01/23 12:33:20;;;;;;;5.95;3.45;;;4.00;92.40;;;;;;5038456;28;20021;-67
2022/01/23 12:35:51;;;;;;;10.23;5.95;;;4.10;91.90;;;;;;5043041;28;20029;-68
2022/01/23 12:38:17;;;;;;;8.20;4.78;;;4.20;92.20;;;;;;5037276;28;20104;-67
2022/01/23 12:40:47;;;;;;;15.10;8.05;;;4.20;92.00;;;;;;5045429;28;20160;-67
2022/01/23 12:43:17;;;;;;;10.48;6.30;;;4.10;92.50;;;;;;5051814;28;20045;-68
2022/01/23 12:46:00;;;;;;;20.40;11.20;;;4.00;93.70;;;;;;5045918;28;20024;-68
2022/01/23 12:48:26;;;;;;;43.95;25.92;;;4.10;93.30;;;;;;5035922;28;20040;-68
2022/01/23 12:51:14;;;;;;;24.63;18.35;;;4.10;93.40;;;;;;5046343;28;20326;-68
2022/01/23 12:53:45;;;;;;;11.25;7.85;;;4.10;92.40;;;;;;5053148;28;20418;-67
2022/01/23 12:56:22;;;;;;;7.25;4.32;;;4.10;92.80;;;;;;5048641;28;20029;-68
2022/01/23 12:59:00;;;;;;;6.40;4.13;;;4.20;92.90;;;;;;5035994;28;20112;-68
2022/01/23 13:01:28;;;;;;;7.70;4.65;;;4.20;93.00;;;;;;5043284;28;20029;-67
2022/01/23 13:03:58;;;;;;;7.30;4.38;;;4.20;93.10;;;;;;5048330;28;20024;-68
2022/01/23 13:06:39;;;;;;;6.95;4.25;;;4.10;92.40;;;;;;5046064;28;20026;-68
2022/01/23 13:12:12;;;;;;;6.57;4.10;;;4.10;91.30;;;;;;5045383;28;20036;-68
2022/01/23 13:14:44;;;;;;;7.00;4.25;;;4.10;92.30;;;;;;5036027;28;20029;-67
2022/01/23 13:30:52;;;;;;;5.57;3.10;;;3.90;92.30;;;;;;5042001;28;20031;-67
2022/01/23 13:33:23;;;;;;;5.43;3.03;;;4.00;91.70;;;;;;5053020;28;20040;-68
2022/01/23 13:35:53;;;;;;;5.28;3.13;;;4.00;91.40;;;;;;5042858;28;20486;-68
2022/01/23 13:38:21;;;;;;;5.57;2.70;;;4.10;90.90;;;;;;5041391;28;20423;-67
2022/01/23 13:40:59;;;;;;;5.35;2.92;;;4.00;90.90;;;;;;5037565;28;20026;-67
2022/01/23 13:52:40;;;;;;;5.43;2.90;;;4.30;91.30;;;;;;5067169;28;20417;-68
2022/01/23 13:58:11;;;;;;;5.32;2.55;;;4.10;90.10;;;;;;5050893;28;20043;-68
2022/01/23 14:00:33;;;;;;;4.35;2.50;;;4.10;89.70;;;;;;5051115;28;20078;-67
2022/01/23 14:02:59;;;;;;;7.82;4.28;;;4.00;91.00;;;;;;5039605;28;20025;-68
2022/01/23 14:05:29;;;;;;;6.10;3.00;;;4.10;90.90;;;;;;5037585;28;20402;-67
2022/01/23 14:07:58;;;;;;;12.15;6.78;;;4.10;90.10;;;;;;5051170;28;20076;-66
2022/01/23 14:10:33;;;;;;;7.32;3.78;;;4.10;90.30;;;;;;5047185;28;20037;-68
2022/01/23 14:13:15;;;;;;;7.20;4.30;;;4.10;90.50;;;;;;5036844;28;20422;-67
2022/01/23 14:15:54;;;;;;;10.63;5.70;;;4.20;90.10;;;;;;5034627;28;20581;-67
2022/01/23 14:18:24;;;;;;;4.45;2.72;;;4.20;89.60;;;;;;5041729;28;20021;-67
2022/01/23 14:21:05;;;;;;;5.20;3.05;;;4.20;89.70;;;;;;5037618;28;20025;-67
2022/01/23 14:23:34;;;;;;;7.90;5.28;;;4.10;90.00;;;;;;5040851;28;20037;-66
2022/01/23 14:26:06;;;;;;;8.23;5.60;;;4.00;90.30;;;;;;5052157;28;20029;-67
2022/01/23 14:28:38;;;;;;;11.05;6.72;;;3.80;90.10;;;;;;5048926;28;20045;-67
2022/01/23 14:31:14;;;;;;;8.60;5.35;;;3.70;90.30;;;;;;5049130;28;20031;-67
2022/01/23 14:33:40;;;;;;;12.00;7.18;;;3.50;90.80;;;;;;5040633;28;20033;-68
2022/01/23 14:36:34;;;;;;;8.30;5.28;;;3.50;91.50;;;;;;5047279;28;20025;-68
2022/01/23 14:39:06;;;;;;;6.60;3.75;;;3.60;91.00;;;;;;5053632;28;20041;-67
2022/01/23 14:41:41;;;;;;;4.70;2.80;;;3.50;91.60;;;;;;5041060;28;20337;-68
2022/01/23 14:44:17;;;;;;;4.72;2.88;;;3.30;91.00;;;;;;5038867;28;20024;-68
2022/01/23 14:46:48;;;;;;;4.85;2.92;;;3.30;92.20;;;;;;5036274;28;20590;-68
2022/01/23 14:49:22;;;;;;;5.90;3.80;;;3.40;92.50;;;;;;5047723;28;20554;-67
2022/01/23 14:51:49;;;;;;;6.13;3.67;;;3.40;92.10;;;;;;5041010;28;20330;-68
2022/01/23 14:54:17;;;;;;;7.00;3.53;;;3.40;92.00;;;;;;5034048;28;20326;-67
2022/01/23 14:56:43;;;;;;;6.07;3.60;;;3.30;91.90;;;;;;5036179;28;20777;-67
2022/01/23 14:59:16;;;;;;;6.55;3.97;;;3.30;91.40;;;;;;5050513;28;20029;-69
2022/01/23 15:01:44;;;;;;;7.65;4.28;;;3.10;91.60;;;;;;5047901;28;20021;-68
2022/01/23 15:04:12;;;;;;;7.90;4.50;;;3.00;92.00;;;;;;5039207;28;20351;-67
2022/01/23 15:06:44;;;;;;;8.02;4.60;;;3.00;92.20;;;;;;5036933;28;20097;-67
2022/01/23 15:09:12;;;;;;;8.65;5.15;;;2.90;92.50;;;;;;5034911;28;20097;-67
2022/01/23 15:11:38;;;;;;;7.03;4.22;;;2.90;93.50;;;;;;5035044;28;20091;-69
2022/01/23 15:14:06;;;;;;;6.55;4.60;;;3.00;92.40;;;;;;5035889;28;20080;-66
2022/01/23 15:16:32;;;;;;;8.63;5.97;;;3.00;92.60;;;;;;5048435;28;20040;-67
2022/01/23 15:18:58;;;;;;;6.50;3.60;;;2.90;93.20;;;;;;5052327;28;20021;-66
2022/01/23 15:21:23;;;;;;;6.88;4.88;;;2.90;93.10;;;;;;5040371;28;20033;-67
2022/01/23 15:23:55;;;;;;;7.32;5.07;;;2.90;92.80;;;;;;5038931;28;20128;-68
2022/01/23 15:26:25;;;;;;;6.57;3.65;;;2.70;93.50;;;;;;5034702;28;20430;-67
2022/01/23 15:28:51;;;;;;;6.15;3.35;;;2.70;93.60;;;;;;5035203;28;20433;-68
2022/01/23 15:31:19;;;;;;;8.25;4.75;;;2.70;93.50;;;;;;5044394;28;20045;-67
2022/01/23 15:33:45;;;;;;;10.52;6.15;;;2.70;93.80;;;;;;5043386;28;20025;-65
2022/01/23 15:36:11;;;;;;;7.28;4.45;;;2.60;94.50;;;;;;5033249;28;20304;-65
2022/01/23 15:38:41;;;;;;;9.35;4.47;;;2.60;94.30;;;;;;5034508;28;20108;-68
2022/01/23 15:41:08;;;;;;;6.72;3.70;;;2.60;94.50;;;;;;5033881;28;20195;-67
2022/01/23 15:43:34;;;;;;;6.88;3.72;;;2.60;94.40;;;;;;5034232;28;20462;-67
2022/01/23 15:46:00;;;;;;;6.32;3.90;;;2.50;94.20;;;;;;5034297;28;20335;-66
2022/01/23 15:48:30;;;;;;;5.63;3.13;;;2.40;94.80;;;;;;5038915;28;20036;-68
2022/01/23 15:50:59;;;;;;;8.38;4.40;;;2.40;94.90;;;;;;5053422;28;20437;-67
2022/01/23 15:53:28;;;;;;;12.25;7.90;;;2.40;95.00;;;;;;5039494;28;20041;-68
2022/01/23 15:55:54;;;;;;;13.85;10.18;;;2.40;94.70;;;;;;5040324;28;20061;-67
2022/01/23 15:58:20;;;;;;;7.38;4.93;;;2.40;94.80;;;;;;5035727;28;20064;-66
2022/01/23 16:00:46;;;;;;;7.75;4.88;;;2.40;95.10;;;;;;5051441;28;20438;-66
2022/01/23 16:03:12;;;;;;;9.02;5.40;;;2.30;95.20;;;;;;5052787;28;20025;-66
2022/01/23 16:05:38;;;;;;;7.95;5.07;;;2.20;96.00;;;;;;5053334;28;20021;-66
2022/01/23 16:08:04;;;;;;;7.82;5.22;;;2.20;96.50;;;;;;5048893;28;20429;-67
2022/01/23 16:10:30;;;;;;;8.70;5.40;;;2.10;96.60;;;;;;5051880;28;20096;-68
2022/01/23 16:12:56;;;;;;;8.43;4.70;;;2.10;96.30;;;;;;5048242;28;20037;-67
2022/01/23 16:15:22;;;;;;;7.00;4.32;;;2.20;96.20;;;;;;5045696;28;20043;-67
2022/01/23 16:17:49;;;;;;;7.57;4.78;;;2.10;96.20;;;;;;5042408;28;20179;-68
2022/01/23 16:20:16;;;;;;;7.72;4.68;;;2.10;95.80;;;;;;5044682;28;20021;-68
2022/01/23 16:22:43;;;;;;;9.95;6.10;;;2.00;96.10;;;;;;5039276;28;20108;-68
2022/01/23 16:25:10;;;;;;;9.85;5.90;;;2.00;96.60;;;;;;5040786;28;20045;-68
2022/01/23 16:27:39;;;;;;;10.88;6.35;;;2.00;96.90;;;;;;5038257;28;20033;-67
2022/01/23 16:30:07;;;;;;;13.05;7.25;;;1.90;96.80;;;;;;5048452;28;20029;-67
2022/01/23 16:32:36;;;;;;;22.73;12.65;;;1.90;96.90;;;;;;5032410;28;20409;-67
2022/01/23 16:35:02;;;;;;;24.40;13.45;;;1.90;96.40;;;;;;5043169;28;20025;-67
2022/01/23 16:37:28;;;;;;;14.70;8.50;;;1.80;96.90;;;;;;5046523;28;20159;-67